sensor_id;sensor_type;location;lat;lon;timestamp;pressure;altitude;pressure_sealevel;temperature;humidity
42111;BME280;27766;52.174;5.456;2023-05-22T00:01:25;101488.91;;;16.10;100.00
42111;BME280;27766;52.174;5.456;2023-05-22T00:03:55;101488.94;;;16.14;100.00
42111;BME280;27766;52.174;5.456;2023-05-22T00:06:23;101489.81;;;16.17;100.00
42111;BME280;27766;52.174;5.456;2023-05-22T00:08:50;101491.56;;;16.19;100.00
42111;BME280;27766;52.174;5.456;2023-05-22T00:11:18;101490.72;;;16.25;100.00
42111;BME280;27766;52.174;5.456;2023-05-22T00:13:45;101490.75;;;16.33;100.00
42111;BME280;27766;52.174;5.456;2023-05-22T00:16:12;101478.56;;;16.28;100.00
42111;BME280;27766;52.174;5.456;2023-05-22T00:18:39;101474.19;;;16.29;100.00
42111;BME280;27766;52.174;5.456;2023-05-22T00:21:08;101477.69;;;16.31;100.00
42111;BME280;27766;52.174;5.456;2023-05-22T00:23:36;101476.84;;;16.35;100.00
42111;BME280;27766;52.174;5.456;2023-05-22T00:26:03;101470.75;;;16.39;100.00
42111;BME280;27766;52.174;5.456;2023-05-22T00:28:30;101479.47;;;16.37;100.00
42111;BME280;27766;52.174;5.456;2023-05-22T00:30:57;101458.53;;;16.29;100.00
42111;BME280;27766;52.174;5.456;2023-05-22T00:33:24;101466.38;;;16.27;100.00
42111;BME280;27766;52.174;5.456;2023-05-22T00:35:52;101466.28;;;16.13;100.00
42111;BME280;27766;52.174;5.456;2023-05-22T00:38:28;101473.28;;;16.18;100.00
42111;BME280;27766;52.174;5.456;2023-05-22T00:40:58;101474.13;;;16.13;100.00
42111;BME280;27766;52.174;5.456;2023-05-22T00:43:25;101469.75;;;16.08;100.00
42111;BME280;27766;52.174;5.456;2023-05-22T00:45:53;101465.41;;;16.08;100.00
42111;BME280;27766;52.174;5.456;2023-05-22T00:48:21;101467.16;;;16.11;100.00
42111;BME280;27766;52.174;5.456;2023-05-22T00:50:53;101461.94;;;16.09;100.00
42111;BME280;27766;52.174;5.456;2023-05-22T00:53:23;101451.47;;;16.05;100.00
42111;BME280;27766;52.174;5.456;2023-05-22T00:55:52;101451.50;;;16.09;100.00
42111;BME280;27766;52.174;5.456;2023-05-22T00:58:20;101441.88;;;16.04;100.00
42111;BME280;27766;52.174;5.456;2023-05-22T01:00:48;101436.69;;;16.07;100.00
42111;BME280;27766;52.174;5.456;2023-05-22T01:03:16;101427.94;;;15.97;100.00
42111;BME280;27766;52.174;5.456;2023-05-22T01:05:44;101420.06;;;15.86;100.00
42111;BME280;27766;52.174;5.456;2023-05-22T01:08:12;101427.84;;;15.85;100.00
42111;BME280;27766;52.174;5.456;2023-05-22T01:10:39;101428.78;;;15.90;100.00
42111;BME280;27766;52.174;5.456;2023-05-22T01:16:01;101430.50;;;15.88;100.00
42111;BME280;27766;52.174;5.456;2023-05-22T01:18:38;101419.19;;;15.90;100.00
42111;BME280;27766;52.174;5.456;2023-05-22T01:21:37;101414.84;;;15.94;100.00
42111;BME280;27766;52.174;5.456;2023-05-22T01:24:27;101414.88;;;15.97;100.00
42111;BME280;27766;52.174;5.456;2023-05-22T01:32:35;101410.53;;;15.96;100.00
42111;BME280;27766;52.174;5.456;2023-05-22T01:35:06;101403.56;;;15.96;100.00
42111;BME280;27766;52.174;5.456;2023-05-22T01:37:37;101406.16;;;15.95;100.00
42111;BME280;27766;52.174;5.456;2023-05-22T01:40:05;101401.78;;;15.89;100.00
42111;BME280;27766;52.174;5.456;2023-05-22T01:42:33;101401.78;;;15.91;100.00
42111;BME280;27766;52.174;5.456;2023-05-22T01:45:01;101406.13;;;15.90;100.00
42111;BME280;27766;52.174;5.456;2023-05-22T01:47:28;101400.03;;;15.88;100.00
42111;BME280;27766;52.174;5.456;2023-05-22T01:49:55;101399.19;;;15.88;100.00
42111;BME280;27766;52.174;5.456;2023-05-22T01:52:47;101397.44;;;15.87;100.00
42111;BME280;27766;52.174;5.456;2023-05-22T02:00:49;101387.72;;;15.69;100.00
42111;BME280;27766;52.174;5.456;2023-05-22T02:03:21;101380.78;;;15.71;100.00
42111;BME280;27766;52.174;5.456;2023-05-22T02:05:54;101372.94;;;15.66;100.00
42111;BME280;27766;52.174;5.456;2023-05-22T02:08:21;101374.66;;;15.67;100.00
42111;BME280;27766;52.174;5.456;2023-05-22T02:10:51;101366.00;;;15.70;100.00
42111;BME280;27766;52.174;5.456;2023-05-22T02:13:21;101365.09;;;15.66;100.00
42111;BME280;27766;52.174;5.456;2023-05-22T02:15:49;101374.66;;;15.67;100.00
42111;BME280;27766;52.174;5.456;2023-05-22T02:18:17;101378.97;;;15.62;100.00
42111;BME280;27766;52.174;5.456;2023-05-22T02:20:47;101373.75;;;15.63;100.00
42111;BME280;27766;52.174;5.456;2023-05-22T02:23:14;101375.50;;;15.63;100.00
42111;BME280;27766;52.174;5.456;2023-05-22T02:25:41;101381.59;;;15.60;100.00
42111;BME280;27766;52.174;5.456;2023-05-22T02:28:08;101380.69;;;15.60;100.00
42111;BME280;27766;52.174;5.456;2023-05-22T02:30:35;101372.03;;;15.61;100.00
42111;BME280;27766;52.174;5.456;2023-05-22T02:33:03;101369.44;;;15.62;100.00
42111;BME280;27766;52.174;5.456;2023-05-22T02:35:32;101367.66;;;15.60;100.00
42111;BME280;27766;52.174;5.456;2023-05-22T02:37:59;101370.28;;;15.64;100.00
42111;BME280;27766;52.174;5.456;2023-05-22T02:40:26;101365.03;;;15.60;100.00
42111;BME280;27766;52.174;5.456;2023-05-22T02:42:54;101360.69;;;15.56;100.00
42111;BME280;27766;52.174;5.456;2023-05-22T02:45:21;101369.38;;;15.51;100.00
42111;BME280;27766;52.174;5.456;2023-05-22T02:47:48;101371.13;;;15.56;100.00
42111;BME280;27766;52.174;5.456;2023-05-22T02:50:16;101362.44;;;15.57;100.00
42111;BME280;27766;52.174;5.456;2023-05-22T02:52:43;101359.88;;;15.61;100.00
42111;BME280;27766;52.174;5.456;2023-05-22T02:55:11;101354.63;;;15.63;100.00
42111;BME280;27766;52.174;5.456;2023-05-22T02:57:38;101349.41;;;15.64;100.00
42111;BME280;27766;52.174;5.456;2023-05-22T03:00:05;101358.16;;;15.70;100.00
42111;BME280;27766;52.174;5.456;2023-05-22T03:02:33;101351.16;;;15.67;100.00
42111;BME280;27766;52.174;5.456;2023-05-22T03:05:03;101353.75;;;15.58;100.00
42111;BME280;27766;52.174;5.456;2023-05-22T03:07:31;101346.78;;;15.57;100.00
42111;BME280;27766;52.174;5.456;2023-05-22T03:09:58;101347.69;;;15.65;100.00
42111;BME280;27766;52.174;5.456;2023-05-22T03:12:25;101343.34;;;15.62;100.00
42111;BME280;27766;52.174;5.456;2023-05-22T03:14:52;101344.25;;;15.66;100.00
42111;BME280;27766;52.174;5.456;2023-05-22T03:17:19;101347.72;;;15.70;100.00
42111;BME280;27766;52.174;5.456;2023-05-22T03:19:46;101342.44;;;15.56;100.00
42111;BME280;27766;52.174;5.456;2023-05-22T03:22:14;101345.00;;;15.52;100.00
42111;BME280;27766;52.174;5.456;2023-05-22T03:24:41;101345.00;;;15.52;100.00
42111;BME280;27766;52.174;5.456;2023-05-22T03:27:08;101347.63;;;15.51;100.00
42111;BME280;27766;52.174;5.456;2023-05-22T03:29:35;101348.50;;;15.51;100.00
42111;BME280;27766;52.174;5.456;2023-05-22T03:32:03;101342.41;;;15.49;100.00
42111;BME280;27766;52.174;5.456;2023-05-22T03:34:30;101341.50;;;15.46;100.00
42111;BME280;27766;52.174;5.456;2023-05-22T03:36:58;101355.44;;;15.51;100.00
42111;BME280;27766;52.174;5.456;2023-05-22T03:39:25;101359.78;;;15.49;100.00
42111;BME280;27766;52.174;5.456;2023-05-22T03:41:52;101357.13;;;15.43;100.00
42111;BME280;27766;52.174;5.456;2023-05-22T03:44:19;101344.88;;;15.29;100.00
42111;BME280;27766;52.174;5.456;2023-05-22T03:46:47;101347.44;;;15.22;100.00
42111;BME280;27766;52.174;5.456;2023-05-22T03:49:14;101345.72;;;15.25;100.00
42111;BME280;27766;52.174;5.456;2023-05-22T03:51:41;101347.44;;;15.20;100.00
42111;BME280;27766;52.174;5.456;2023-05-22T03:54:08;101354.34;;;15.15;100.00
42111;BME280;27766;52.174;5.456;2023-05-22T03:56:36;101354.38;;;15.21;100.00
42111;BME280;27766;52.174;5.456;2023-05-22T03:59:03;101359.59;;;15.23;100.00
42111;BME280;27766;52.174;5.456;2023-05-22T04:01:30;101363.94;;;15.17;100.00
42111;BME280;27766;52.174;5.456;2023-05-22T04:03:57;101362.09;;;15.06;100.00
42111;BME280;27766;52.174;5.456;2023-05-22T04:06:24;101361.97;;;14.90;100.00
42111;BME280;27766;52.174;5.456;2023-05-22T04:08:52;101349.81;;;14.91;100.00
42111;BME280;27766;52.174;5.456;2023-05-22T04:11:19;101346.28;;;14.84;100.00
42111;BME280;27766;52.174;5.456;2023-05-22T04:13:48;101346.19;;;14.73;100.00
42111;BME280;27766;52.174;5.456;2023-05-22T04:16:17;101346.19;;;14.75;100.00
42111;BME280;27766;52.174;5.456;2023-05-22T04:18:44;101359.31;;;14.87;100.00
42111;BME280;27766;52.174;5.456;2023-05-22T04:21:12;101347.00;;;14.66;100.00
42111;BME280;27766;52.174;5.456;2023-05-22T04:23:39;101360.88;;;14.66;100.00
42111;BME280;27766;52.174;5.456;2023-05-22T04:26:09;101364.38;;;14.68;100.00
42111;BME280;27766;52.174;5.456;2023-05-22T04:28:36;101383.59;;;14.80;100.00
42111;BME280;27766;52.174;5.456;2023-05-22T04:31:03;101378.41;;;14.83;100.00
42111;BME280;27766;52.174;5.456;2023-05-22T04:33:32;101381.81;;;14.74;100.00
42111;BME280;27766;52.174;5.456;2023-05-22T04:36:00;101388.69;;;14.67;100.00
42111;BME280;27766;52.174;5.456;2023-05-22T04:38:28;101386.19;;;14.78;100.00
42111;BME280;27766;52.174;5.456;2023-05-22T04:40:55;101400.06;;;14.76;100.00
42111;BME280;27766;52.174;5.456;2023-05-22T04:43:24;101395.81;;;14.84;100.00
42111;BME280;27766;52.174;5.456;2023-05-22T04:45:52;101398.47;;;14.92;100.00
42111;BME280;27766;52.174;5.456;2023-05-22T04:48:21;101403.75;;;14.98;100.00
42111;BME280;27766;52.174;5.456;2023-05-22T04:50:49;101395.09;;;15.02;100.00
42111;BME280;27766;52.174;5.456;2023-05-22T04:53:16;101397.78;;;15.11;100.00
42111;BME280;27766;52.174;5.456;2023-05-22T04:55:43;101415.22;;;15.20;100.00
42111;BME280;27766;52.174;5.456;2023-05-22T04:58:11;101407.31;;;15.11;100.00
42111;BME280;27766;52.174;5.456;2023-05-22T05:00:39;101408.22;;;15.14;100.00
42111;BME280;27766;52.174;5.456;2023-05-22T05:03:06;101414.34;;;15.19;100.00
42111;BME280;27766;52.174;5.456;2023-05-22T05:05:34;101418.72;;;15.22;100.00
42111;BME280;27766;52.174;5.456;2023-05-22T05:08:01;101405.72;;;15.27;100.00
42111;BME280;27766;52.174;5.456;2023-05-22T05:10:28;101403.91;;;15.18;100.00
42111;BME280;27766;52.174;5.456;2023-05-22T05:12:56;101410.94;;;15.30;100.00
42111;BME280;27766;52.174;5.456;2023-05-22T05:15:23;101416.09;;;15.21;100.00
42111;BME280;27766;52.174;5.456;2023-05-22T05:17:50;101414.41;;;15.27;100.00
42111;BME280;27766;52.174;5.456;2023-05-22T05:20:18;101407.50;;;15.34;100.00
42111;BME280;27766;52.174;5.456;2023-05-22T05:22:46;101411.00;;;15.36;100.00
42111;BME280;27766;52.174;5.456;2023-05-22T05:25:13;101407.59;;;15.43;100.00
42111;BME280;27766;52.174;5.456;2023-05-22T05:27:40;101404.97;;;15.43;100.00
42111;BME280;27766;52.174;5.456;2023-05-22T05:30:08;101405.00;;;15.51;100.00
42111;BME280;27766;52.174;5.456;2023-05-22T05:32:35;101407.66;;;15.54;100.00
42111;BME280;27766;52.174;5.456;2023-05-22T05:35:03;101405.94;;;15.59;100.00
42111;BME280;27766;52.174;5.456;2023-05-22T05:37:30;101406.84;;;15.66;100.00
42111;BME280;27766;52.174;5.456;2023-05-22T05:39:57;101392.03;;;15.63;100.00
42111;BME280;27766;52.174;5.456;2023-05-22T05:42:24;101397.31;;;15.70;100.00
42111;BME280;27766;52.174;5.456;2023-05-22T05:44:52;101393.00;;;15.78;100.00
42111;BME280;27766;52.174;5.456;2023-05-22T05:47:19;101395.63;;;15.82;100.00
42111;BME280;27766;52.174;5.456;2023-05-22T05:49:50;101399.19;;;15.88;100.00
42111;BME280;27766;52.174;5.456;2023-05-22T05:52:17;101391.34;;;15.89;100.00
42111;BME280;27766;52.174;5.456;2023-05-22T05:54:44;101402.69;;;15.97;100.00
42111;BME280;27766;52.174;5.456;2023-05-22T05:57:14;101398.41;;;16.12;100.00
42111;BME280;27766;52.174;5.456;2023-05-22T05:59:41;101395.81;;;16.17;100.00
42111;BME280;27766;52.174;5.456;2023-05-22T06:02:08;101394.06;;;16.22;100.00
42111;BME280;27766;52.174;5.456;2023-05-22T06:04:36;101389.75;;;16.24;100.00
42111;BME280;27766;52.174;5.456;2023-05-22T06:07:03;101383.72;;;16.43;100.00
42111;BME280;27766;52.174;5.456;2023-05-22T06:09:31;101388.09;;;16.57;100.00
42111;BME280;27766;52.174;5.456;2023-05-22T06:11:58;101393.34;;;16.68;100.00
42111;BME280;27766;52.174;5.456;2023-05-22T06:14:25;101394.22;;;16.77;100.00
42111;BME280;27766;52.174;5.456;2023-05-22T06:16:52;101399.44;;;16.88;100.00
42111;BME280;27766;52.174;5.456;2023-05-22T06:19:19;101396.00;;;17.03;100.00
42111;BME280;27766;52.174;5.456;2023-05-22T06:21:47;101390.75;;;17.13;100.00
42111;BME280;27766;52.174;5.456;2023-05-22T06:24:17;101381.16;;;17.25;100.00
42111;BME280;27766;52.174;5.456;2023-05-22T06:26:44;101397.72;;;17.38;100.00
42111;BME280;27766;52.174;5.456;2023-05-22T06:29:11;101395.09;;;17.42;100.00
42111;BME280;27766;52.174;5.456;2023-05-22T06:31:38;101394.19;;;17.47;100.00
42111;BME280;27766;52.174;5.456;2023-05-22T06:34:06;101400.28;;;17.68;100.00
42111;BME280;27766;52.174;5.456;2023-05-22T06:36:33;101402.84;;;17.85;100.00
42111;BME280;27766;52.174;5.456;2023-05-22T06:39:01;101411.56;;;17.90;100.00
42111;BME280;27766;52.174;5.456;2023-05-22T06:41:28;101401.94;;;17.92;100.00
42111;BME280;27766;52.174;5.456;2023-05-22T06:43:55;101408.03;;;18.14;100.00
42111;BME280;27766;52.174;5.456;2023-05-22T06:46:23;101407.88;;;18.39;100.00
42111;BME280;27766;52.174;5.456;2023-05-22T06:48:52;101420.91;;;18.53;100.00
42111;BME280;27766;52.174;5.456;2023-05-22T06:51:20;101415.69;;;18.51;100.00
42111;BME280;27766;52.174;5.456;2023-05-22T06:53:47;101423.38;;;18.75;100.00
42111;BME280;27766;52.174;5.456;2023-05-22T06:56:14;101418.19;;;18.72;100.00
42111;BME280;27766;52.174;5.456;2023-05-22T06:58:42;101422.50;;;18.76;100.00
42111;BME280;27766;52.174;5.456;2023-05-22T07:01:09;101414.56;;;18.88;100.00
42111;BME280;27766;52.174;5.456;2023-05-22T07:03:36;101418.00;;;19.03;100.00
42111;BME280;27766;52.174;5.456;2023-05-22T07:06:03;101422.22;;;19.21;100.00
42111;BME280;27766;52.174;5.456;2023-05-22T07:08:32;101422.97;;;19.32;100.00
42111;BME280;27766;52.174;5.456;2023-05-22T07:10:59;101424.66;;;19.41;100.00
42111;BME280;27766;52.174;5.456;2023-05-22T07:13:27;101420.19;;;19.51;100.00
42111;BME280;27766;52.174;5.456;2023-05-22T07:15:58;101430.63;;;19.55;100.00
42111;BME280;27766;52.174;5.456;2023-05-22T07:18:25;101424.38;;;19.69;100.00
42111;BME280;27766;52.174;5.456;2023-05-22T07:20:52;101439.47;;;19.48;100.00
42111;BME280;27766;52.174;5.456;2023-05-22T07:23:19;101427.03;;;19.64;100.00
42111;BME280;27766;52.174;5.456;2023-05-22T07:25:47;101429.47;;;19.87;100.00
42111;BME280;27766;52.174;5.456;2023-05-22T07:28:14;101434.50;;;20.06;100.00
42111;BME280;27766;52.174;5.456;2023-05-22T07:30:41;101432.66;;;20.13;100.00
42111;BME280;27766;52.174;5.456;2023-05-22T07:33:09;101438.63;;;20.26;100.00
42111;BME280;27766;52.174;5.456;2023-05-22T07:35:36;101431.38;;;20.43;100.00
42111;BME280;27766;52.174;5.456;2023-05-22T07:38:03;101419.88;;;20.50;100.00
42111;BME280;27766;52.174;5.456;2023-05-22T07:40:31;101435.31;;;20.77;100.00
42111;BME280;27766;52.174;5.456;2023-05-22T07:42:58;101438.81;;;20.77;100.00
42111;BME280;27766;52.174;5.456;2023-05-22T07:45:25;101428.91;;;20.95;100.00
42111;BME280;27766;52.174;5.456;2023-05-22T07:47:52;101436.94;;;20.85;100.00
42111;BME280;27766;52.174;5.456;2023-05-22T07:50:22;101429.19;;;20.76;100.00
42111;BME280;27766;52.174;5.456;2023-05-22T07:52:52;101432.75;;;20.70;100.00
42111;BME280;27766;52.174;5.456;2023-05-22T07:55:19;101433.78;;;20.59;100.00
42111;BME280;27766;52.174;5.456;2023-05-22T07:57:47;101444.31;;;20.59;100.00
42111;BME280;27766;52.174;5.456;2023-05-22T08:00:15;101439.13;;;20.55;100.00
42111;BME280;27766;52.174;5.456;2023-05-22T08:02:42;101436.31;;;20.66;100.00
42111;BME280;27766;52.174;5.456;2023-05-22T08:05:11;101438.00;;;20.74;100.00
42111;BME280;27766;52.174;5.456;2023-05-22T08:07:38;101438.38;;;21.05;100.00
42111;BME280;27766;52.174;5.456;2023-05-22T08:10:13;101428.84;;;20.99;100.00
42111;BME280;27766;52.174;5.456;2023-05-22T08:12:40;101441.34;;;21.38;100.00
42111;BME280;27766;52.174;5.456;2023-05-22T08:15:08;101450.09;;;21.40;100.00
42111;BME280;27766;52.174;5.456;2023-05-22T08:17:35;101452.97;;;21.26;100.00
42111;BME280;27766;52.174;5.456;2023-05-22T08:20:03;101449.53;;;21.21;100.00
42111;BME280;27766;52.174;5.456;2023-05-22T08:22:31;101455.25;;;21.46;100.00
42111;BME280;27766;52.174;5.456;2023-05-22T08:25:00;101457.53;;;21.68;100.00
42111;BME280;27766;52.174;5.456;2023-05-22T08:27:27;101459.06;;;21.80;100.00
42111;BME280;27766;52.174;5.456;2023-05-22T08:29:54;101462.88;;;21.63;100.00
42111;BME280;27766;52.174;5.456;2023-05-22T08:32:22;101453.25;;;21.61;100.00
42111;BME280;27766;52.174;5.456;2023-05-22T08:34:49;101453.84;;;21.77;100.00
42111;BME280;27766;52.174;5.456;2023-05-22T08:37:16;101451.81;;;21.91;100.00
42111;BME280;27766;52.174;5.456;2023-05-22T08:39:44;101447.72;;;21.76;100.00
42111;BME280;27766;52.174;5.456;2023-05-22T08:42:12;101443.38;;;21.74;100.00
42111;BME280;27766;52.174;5.456;2023-05-22T08:44:39;101436.31;;;21.76;100.00
42111;BME280;27766;52.174;5.456;2023-05-22T08:47:07;101444.00;;;21.87;100.00
42111;BME280;27766;52.174;5.456;2023-05-22T08:49:40;101450.00;;;21.93;100.00
42111;BME280;27766;52.174;5.456;2023-05-22T08:52:41;101440.84;;;22.11;100.00
42111;BME280;27766;52.174;5.456;2023-05-22T08:55:14;101435.72;;;22.07;100.00
42111;BME280;27766;52.174;5.456;2023-05-22T08:57:43;101443.56;;;22.08;100.00
42111;BME280;27766;52.174;5.456;2023-05-22T09:00:11;101442.09;;;21.95;100.00
42111;BME280;27766;52.174;5.456;2023-05-22T09:02:38;101446.13;;;22.13;100.00
42111;BME280;27766;52.174;5.456;2023-05-22T09:05:06;101445.00;;;22.25;100.00
42111;BME280;27766;52.174;5.456;2023-05-22T09:07:35;101435.03;;;22.38;100.00
42111;BME280;27766;52.174;5.456;2023-05-22T09:10:04;101436.66;;;22.47;100.00
42111;BME280;27766;52.174;5.456;2023-05-22T09:12:33;101446.66;;;22.29;100.00
42111;BME280;27766;52.174;5.456;2023-05-22T09:15:07;101428.69;;;22.48;100.00
42111;BME280;27766;52.174;5.456;2023-05-22T09:17:39;101434.38;;;22.69;100.00
42111;BME280;27766;52.174;5.456;2023-05-22T09:20:07;101427.19;;;22.75;100.00
42111;BME280;27766;52.174;5.456;2023-05-22T09:22:39;101440.84;;;22.55;100.00
42111;BME280;27766;52.174;5.456;2023-05-22T09:25:06;101435.94;;;22.76;100.00
42111;BME280;27766;52.174;5.456;2023-05-22T09:27:34;101426.03;;;22.87;100.00
42111;BME280;27766;52.174;5.456;2023-05-22T09:30:01;101414.25;;;23.02;100.00
42111;BME280;27766;52.174;5.456;2023-05-22T09:32:28;101419.81;;;23.26;100.00
42111;BME280;27766;52.174;5.456;2023-05-22T09:35:03;101421.75;;;23.19;100.00
42111;BME280;27766;52.174;5.456;2023-05-22T09:37:35;101418.09;;;23.25;100.00
42111;BME280;27766;52.174;5.456;2023-05-22T09:40:04;101420.28;;;23.42;100.00
42111;BME280;27766;52.174;5.456;2023-05-22T09:42:33;101419.75;;;23.61;100.00
42111;BME280;27766;52.174;5.456;2023-05-22T09:45:05;101424.84;;;23.68;100.00
42111;BME280;27766;52.174;5.456;2023-05-22T09:47:33;101408.41;;;23.57;100.00
42111;BME280;27766;52.174;5.456;2023-05-22T09:50:04;101409.88;;;23.36;100.00
42111;BME280;27766;52.174;5.456;2023-05-22T09:52:34;101424.38;;;23.54;100.00
42111;BME280;27766;52.174;5.456;2023-05-22T09:55:03;101416.53;;;23.51;100.00
42111;BME280;27766;52.174;5.456;2023-05-22T09:57:38;101411.41;;;23.76;100.00
42111;BME280;27766;52.174;5.456;2023-05-22T10:00:07;101414.50;;;23.92;100.00
42111;BME280;27766;52.174;5.456;2023-05-22T10:02:42;101422.22;;;24.00;100.00
42111;BME280;27766;52.174;5.456;2023-05-22T10:05:11;101428.28;;;24.03;100.00
42111;BME280;27766;52.174;5.456;2023-05-22T10:07:55;101424.47;;;24.14;100.00
42111;BME280;27766;52.174;5.456;2023-05-22T10:10:25;101413.81;;;24.17;100.00
42111;BME280;27766;52.174;5.456;2023-05-22T10:12:56;101421.97;;;24.09;100.00
42111;BME280;27766;52.174;5.456;2023-05-22T10:15:26;101419.97;;;23.86;100.00
42111;BME280;27766;52.174;5.456;2023-05-22T10:17:54;101412.28;;;24.10;100.00
42111;BME280;27766;52.174;5.456;2023-05-22T10:20:22;101417.75;;;23.70;100.00
42111;BME280;27766;52.174;5.456;2023-05-22T10:22:52;101411.41;;;23.76;100.00
42111;BME280;27766;52.174;5.456;2023-05-22T10:25:20;101416.22;;;23.62;100.00
42111;BME280;27766;52.174;5.456;2023-05-22T10:27:52;101412.47;;;23.70;100.00
42111;BME280;27766;52.174;5.456;2023-05-22T10:30:40;101413.56;;;23.95;100.00
42111;BME280;27766;52.174;5.456;2023-05-22T10:33:15;101419.13;;;24.17;100.00
42111;BME280;27766;52.174;5.456;2023-05-22T10:41:22;101403.53;;;25.18;100.00
42111;BME280;27766;52.174;5.456;2023-05-22T10:43:50;101400.50;;;25.31;100.00
42111;BME280;27766;52.174;5.456;2023-05-22T10:46:18;101393.69;;;24.96;100.00
42111;BME280;27766;52.174;5.456;2023-05-22T10:48:47;101391.56;;;25.08;100.00
42111;BME280;27766;52.174;5.456;2023-05-22T10:51:18;101393.84;;;25.19;100.00
42111;BME280;27766;52.174;5.456;2023-05-22T10:53:51;101392.84;;;25.21;100.00
42111;BME280;27766;52.174;5.456;2023-05-22T10:56:21;101400.25;;;24.85;100.00
42111;BME280;27766;52.174;5.456;2023-05-22T10:58:56;101400.63;;;25.01;100.00
42111;BME280;27766;52.174;5.456;2023-05-22T11:01:25;101392.63;;;25.02;100.00
42111;BME280;27766;52.174;5.456;2023-05-22T11:03:58;101398.16;;;25.21;97.82
42111;BME280;27766;52.174;5.456;2023-05-22T11:12:16;101402.19;;;25.58;92.79
42111;BME280;27766;52.174;5.456;2023-05-22T11:14:48;101396.41;;;25.47;93.44
42111;BME280;27766;52.174;5.456;2023-05-22T11:17:17;101386.88;;;25.16;96.92
42111;BME280;27766;52.174;5.456;2023-05-22T11:19:56;101396.13;;;25.55;87.72
42111;BME280;27766;52.174;5.456;2023-05-22T11:23:16;101394.47;;;25.52;88.09
42111;BME280;27766;52.174;5.456;2023-05-22T11:25:23;101390.53;;;25.39;84.74
42111;BME280;27766;52.174;5.456;2023-05-22T11:27:53;101377.47;;;25.58;90.57
42111;BME280;27766;52.174;5.456;2023-05-22T11:30:25;101383.75;;;25.55;81.38
42111;BME280;27766;52.174;5.456;2023-05-22T11:32:52;101371.94;;;25.88;80.55
42111;BME280;27766;52.174;5.456;2023-05-22T11:35:20;101372.47;;;26.21;72.47
42111;BME280;27766;52.174;5.456;2023-05-22T11:37:49;101373.31;;;26.22;69.36
42111;BME280;27766;52.174;5.456;2023-05-22T11:40:19;101369.34;;;26.10;74.24
42111;BME280;27766;52.174;5.456;2023-05-22T11:42:47;101374.53;;;25.89;71.27
42111;BME280;27766;52.174;5.456;2023-05-22T11:45:14;101367.47;;;26.36;81.39
42111;BME280;27766;52.174;5.456;2023-05-22T11:47:44;101365.00;;;26.76;68.94
42111;BME280;27766;52.174;5.456;2023-05-22T11:50:11;101367.88;;;26.69;73.08
42111;BME280;27766;52.174;5.456;2023-05-22T11:52:41;101370.53;;;26.92;75.16
42111;BME280;27766;52.174;5.456;2023-05-22T11:55:09;101363.50;;;26.68;78.47
42111;BME280;27766;52.174;5.456;2023-05-22T11:57:37;101360.78;;;27.73;70.13
42111;BME280;27766;52.174;5.456;2023-05-22T12:00:06;101367.03;;;28.30;62.08
42111;BME280;27766;52.174;5.456;2023-05-22T12:02:38;101357.00;;;28.54;62.82
42111;BME280;27766;52.174;5.456;2023-05-22T12:05:10;101368.41;;;28.00;63.12
42111;BME280;27766;52.174;5.456;2023-05-22T12:07:37;101368.16;;;27.67;63.01
42111;BME280;27766;52.174;5.456;2023-05-22T12:10:05;101364.09;;;27.78;67.30
42111;BME280;27766;52.174;5.456;2023-05-22T12:12:33;101367.63;;;27.39;77.45
42111;BME280;27766;52.174;5.456;2023-05-22T12:15:04;101370.47;;;27.35;72.06
42111;BME280;27766;52.174;5.456;2023-05-22T12:17:34;101361.16;;;27.85;64.76
42111;BME280;27766;52.174;5.456;2023-05-22T12:20:10;101369.63;;;27.55;67.26
42111;BME280;27766;52.174;5.456;2023-05-22T12:22:42;101372.97;;;27.38;66.03
42111;BME280;27766;52.174;5.456;2023-05-22T12:25:15;101369.31;;;27.40;73.77
42111;BME280;27766;52.174;5.456;2023-05-22T12:27:46;101370.34;;;26.52;74.20
42111;BME280;27766;52.174;5.456;2023-05-22T12:30:14;101372.63;;;26.17;81.26
42111;BME280;27766;52.174;5.456;2023-05-22T12:32:46;101368.38;;;25.89;83.17
42111;BME280;27766;52.174;5.456;2023-05-22T12:35:15;101379.59;;;25.72;89.64
42111;BME280;27766;52.174;5.456;2023-05-22T12:37:50;101374.81;;;25.58;91.38
42111;BME280;27766;52.174;5.456;2023-05-22T12:40:17;101375.41;;;25.41;89.97
42111;BME280;27766;52.174;5.456;2023-05-22T12:42:46;101370.03;;;25.68;86.15
42111;BME280;27766;52.174;5.456;2023-05-22T12:45:13;101371.53;;;25.75;83.73
42111;BME280;27766;52.174;5.456;2023-05-22T12:47:41;101361.19;;;25.69;86.25
42111;BME280;27766;52.174;5.456;2023-05-22T12:50:08;101364.28;;;25.80;83.10
42111;BME280;27766;52.174;5.456;2023-05-22T12:52:35;101371.41;;;26.02;77.25
42111;BME280;27766;52.174;5.456;2023-05-22T12:55:02;101367.88;;;26.69;75.98
42111;BME280;27766;52.174;5.456;2023-05-22T12:57:30;101362.97;;;27.24;77.80
42111;BME280;27766;52.174;5.456;2023-05-22T12:59:57;101371.06;;;26.57;88.62
42111;BME280;27766;52.174;5.456;2023-05-22T13:02:24;101385.84;;;25.71;100.00
42111;BME280;27766;52.174;5.456;2023-05-22T13:04:52;101381.59;;;24.61;100.00
42111;BME280;27766;52.174;5.456;2023-05-22T13:07:19;101384.44;;;23.96;100.00
42111;BME280;27766;52.174;5.456;2023-05-22T13:09:46;101389.03;;;23.58;100.00
42111;BME280;27766;52.174;5.456;2023-05-22T13:12:13;101389.25;;;23.17;100.00
42111;BME280;27766;52.174;5.456;2023-05-22T13:14:40;101395.78;;;23.01;100.00